首页
METAR-TAF:

METAR-TAF

机场 :

Bisbee Douglas International Airport

道格拉斯 / 比斯比, 亞利桑那州, 美国

纬度: 31-28-09N, 经度: 109-36-13W, 海拔: 1266米

当前天气观测

该预报发布于13分钟前的01:56 UTC
风速7节,风向
温度 29°C
湿度 31%
气压 1017 hPa
能見度: 16.1公里
天空无云

METAR: KDUG 220156Z AUTO 36007KT 10SM CLR 29/10 A3003 RMK AO2 SLP092 T02890100

时间: 19:09 (02:09 UTC)

预报

该预报发布于2小时和49分钟前的23:20 UTC
预报有效从22日的 00点(UTC)到 22日的 24点(UTC)
风速10节,风向西,有时为18节阵风
能見度: 10公里
散云层高于10000英尺, 积雨云.
多云层高于25000英尺
附近有雷暴
短暂存在
从 22日的 00点(UTC)到 22日的 02点(UTC)
风速20节,风向多变,有时为35节阵风
能見度: 8.0公里
多云层高于9000英尺, 积雨云.
雷暴, 雨
从 22日的 0400点(UTC)
风速8节,风向
能見度: 10公里
散云层高于10000英尺
多云层高于25000英尺
从 22日的 0900点(UTC)
风速4节,风向多变
能見度: 10公里
少量云层高于12000英尺
散云层高于25000英尺
从 22日的 1900点(UTC)
风速9节,风向东转东北
能見度: 10公里
散云层高于10000英尺
散云层高于25000英尺

TAF: KDUG 212320Z 2200/2224 28010G18KT P6SM VCTS SCT100CB BKN250 TEMPO 2200/2202 VRB20G35KT 5SM TSRA BKN090CB FM220400 18008KT P6SM SCT100 BKN250 FM220900 VRB04KT P6SM FEW120 SCT250 FM221900 07009KT P6SM SCT100 SCT250

超过4000个机场的气象观测和天气预报(METAR&TAF报告)。

可查询的气象台以黄色和红色小点在地图上表示。

将鼠标移到小点上方,可查看气象台名称。

然后点击查看天气观测和预报。

如需切换地图:点击带黑十字的绿色按钮放大地图;点击带横线的绿色按钮缩小地图;或者点击绿色箭头查看邻近地区的地图。


METAR-TAF: